Time;durP1;ratioP1;P1;durP2;ratioP2;P2;SDS_P1;SDS_P2;PMS_P1;PMS_P2;Temp;Humidity;BMP_temperature;BMP_pressure;BME280_temperature;BME280_humidity;BME280_pressure;Samples;Min_cycle;Max_cycle;Signal;HPM_P1;HPM_P2
2022/01/09 00:02:30;;;;;;;0.10;0.10;;;;;;;7.57;85.63;97887.09;8289799;28;20026;-63
2022/01/09 00:06:30;;;;;;;0.10;0.10;;;;;;;7.65;85.23;97895.09;8290328;28;20042;-63
2022/01/09 00:10:32;;;;;;;0.20;0.20;;;;;;;7.66;85.18;97883.31;8289477;28;20128;-63
2022/01/09 00:14:33;;;;;;;0.35;0.10;;;;;;;7.67;85.81;97868.88;8282530;28;20041;-63
2022/01/09 00:18:33;;;;;;;0.10;0.10;;;;;;;7.64;85.95;97877.31;8290366;28;20038;-63
2022/01/09 00:22:41;;;;;;;0.20;0.20;;;;;;;7.59;86.24;97874.31;8287973;28;20073;-63
2022/01/09 00:26:41;;;;;;;0.10;0.10;;;;;;;7.56;86.30;97871.16;8289774;28;20573;-63
2022/01/09 00:30:42;;;;;;;0.30;0.20;;;;;;;7.56;86.63;97873.84;8289818;28;20033;-63
2022/01/09 00:34:42;;;;;;;0.20;0.13;;;;;;;7.58;86.91;97880.72;8291410;28;20065;-63
2022/01/09 00:38:43;;;;;;;0.10;0.10;;;;;;;7.54;87.92;97882.09;8290851;28;20038;-63
2022/01/09 00:42:44;;;;;;;0.10;0.10;;;;;;;7.57;88.74;97881.72;8290725;28;20030;-63
2022/01/09 00:46:44;;;;;;;0.20;0.10;;;;;;;7.62;88.42;97873.94;8290443;28;20038;-63
2022/01/09 00:50:45;;;;;;;0.10;0.10;;;;;;;7.60;88.99;97878.66;8286081;28;20030;-63
2022/01/09 00:54:45;;;;;;;0.10;0.10;;;;;;;7.59;90.06;97878.84;8285586;28;20071;-63
2022/01/09 00:58:45;;;;;;;0.10;0.10;;;;;;;7.44;91.85;97880.75;8275190;28;20046;-63
2022/01/09 01:02:46;;;;;;;0.25;0.20;;;;;;;7.32;94.00;97872.28;8261706;28;20394;-63
2022/01/09 01:06:49;;;;;;;0.20;0.20;;;;;;;7.17;96.87;97878.69;8272284;28;20034;-63
2022/01/09 01:10:49;;;;;;;0.40;0.30;;;;;;;7.03;98.97;97872.28;8268165;28;20038;-63
2022/01/09 01:14:50;;;;;;;0.20;0.20;;;;;;;6.98;100.00;97874.66;8269618;28;20529;-63
2022/01/09 01:18:54;;;;;;;0.20;0.20;;;;;;;6.97;100.00;97878.38;8277244;28;20274;-63
2022/01/09 01:22:57;;;;;;;2.13;0.30;;;;;;;6.92;100.00;97880.75;8272876;28;20034;-63
2022/01/09 01:26:58;;;;;;;1.50;0.43;;;;;;;7.05;100.00;97889.03;8275016;28;20041;-63
2022/01/09 01:30:58;;;;;;;0.85;0.40;;;;;;;7.24;100.00;97885.81;8273960;28;20046;-62
2022/01/09 01:34:59;;;;;;;0.55;0.50;;;;;;;7.28;100.00;97889.81;8259612;28;20307;-62
2022/01/09 01:38:59;;;;;;;2.97;0.70;;;;;;;7.26;100.00;97891.03;8258192;28;20425;-62
2022/01/09 01:43:00;;;;;;;2.88;0.90;;;;;;;7.14;100.00;97895.16;8280114;28;20092;-62
2022/01/09 01:47:00;;;;;;;1.55;0.60;;;;;;;7.03;100.00;97899.13;8284067;28;20037;-62
2022/01/09 01:51:01;;;;;;;2.47;0.63;;;;;;;7.04;100.00;97926.81;8288952;28;20026;-62
2022/01/09 01:55:03;;;;;;;1.13;0.55;;;;;;;6.90;100.00;97943.72;8288063;28;20401;-61
2022/01/09 01:59:03;;;;;;;1.33;0.60;;;;;;;6.83;100.00;97961.59;8291420;28;20030;-62
2022/01/09 02:03:04;;;;;;;1.58;0.43;;;;;;;6.63;100.00;97992.59;8291410;28;20041;-62
2022/01/09 02:07:05;;;;;;;1.42;0.50;;;;;;;6.56;100.00;98013.91;8292301;28;20529;-62
2022/01/09 02:11:05;;;;;;;1.13;0.63;;;;;;;6.58;100.00;98044.09;8290958;28;20045;-62
2022/01/09 02:15:34;;;;;;;1.75;0.50;;;;;;;6.49;100.00;98036.28;8291056;28;20073;-62
2022/01/09 02:19:34;;;;;;;5.72;0.65;;;;;;;6.47;100.00;98057.94;8291630;28;20041;-62
2022/01/09 02:23:37;;;;;;;2.72;0.60;;;;;;;6.51;100.00;98064.63;8293589;28;20026;-62
2022/01/09 02:27:37;;;;;;;3.00;0.57;;;;;;;6.59;100.00;98079.84;8296869;28;20053;-62
2022/01/09 02:31:39;;;;;;;5.05;1.08;;;;;;;6.57;100.00;98101.47;8297521;28;20121;-62
2022/01/09 02:35:39;;;;;;;9.48;1.17;;;;;;;6.59;100.00;98104.81;8295915;28;20048;-62
2022/01/09 02:39:40;;;;;;;7.70;0.88;;;;;;;6.56;100.00;98121.25;8303097;28;20045;-61
2022/01/09 02:43:40;;;;;;;12.93;1.75;;;;;;;6.60;100.00;98127.97;8296673;28;20030;-62
2022/01/09 02:47:41;;;;;;;8.55;1.65;;;;;;;6.63;100.00;98143.72;8296444;28;20034;-62
2022/01/09 02:51:45;;;;;;;12.68;2.35;;;;;;;6.64;100.00;98164.19;8273779;28;20034;-62
2022/01/09 02:55:46;;;;;;;14.13;2.00;;;;;;;6.66;100.00;98175.59;8264292;28;20042;-62
2022/01/09 02:59:46;;;;;;;13.52;2.58;;;;;;;6.64;100.00;98185.66;8264363;28;20034;-62
2022/01/09 03:03:46;;;;;;;8.98;1.95;;;;;;;6.61;100.00;98207.47;8264014;28;20161;-62
2022/01/09 03:07:47;;;;;;;7.30;2.40;;;;;;;6.63;100.00;98228.78;8263685;28;20026;-62
2022/01/09 03:11:49;;;;;;;7.45;1.67;;;;;;;6.60;100.00;98229.13;8273232;28;20539;-62
2022/01/09 03:15:50;;;;;;;9.00;1.67;;;;;;;6.61;100.00;98237.00;8294693;28;20048;-61
2022/01/09 03:19:51;;;;;;;10.50;2.22;;;;;;;6.51;100.00;98236.38;8286581;28;20038;-62
2022/01/09 03:23:51;;;;;;;12.40;2.38;;;;;;;6.46;100.00;98249.44;8275699;28;20029;-62
2022/01/09 03:27:53;;;;;;;14.82;2.42;;;;;;;6.45;100.00;98261.19;8295971;28;20034;-62
2022/01/09 03:31:54;;;;;;;15.85;2.83;;;;;;;6.52;100.00;98275.59;8293871;28;20370;-62
2022/01/09 03:35:54;;;;;;;17.52;2.47;;;;;;;6.52;100.00;98282.84;8295311;28;20042;-61
2022/01/09 03:39:55;;;;;;;15.77;2.70;;;;;;;6.51;100.00;98289.19;8295166;28;20029;-61
2022/01/09 03:43:55;;;;;;;10.68;2.47;;;;;;;6.50;100.00;98299.09;8293971;28;20544;-62
2022/01/09 03:47:56;;;;;;;14.35;2.70;;;;;;;6.47;100.00;98318.22;8295343;28;20042;-62
2022/01/09 03:51:58;;;;;;;16.67;3.05;;;;;;;6.50;100.00;98325.94;8294283;28;20034;-62
2022/01/09 03:55:58;;;;;;;18.30;4.45;;;;;;;6.58;100.00;98325.91;8295117;28;20042;-62
2022/01/09 03:59:59;;;;;;;26.58;5.65;;;;;;;6.69;100.00;98330.09;8294712;28;20568;-62
2022/01/09 04:03:59;;;;;;;37.38;6.03;;;;;;;6.84;100.00;98329.25;8293518;28;20030;-62
2022/01/09 04:08:00;;;;;;;41.90;6.72;;;;;;;6.97;100.00;98348.34;8292788;28;20524;-61
2022/01/09 04:12:03;;;;;;;35.25;6.53;;;;;;;7.04;100.00;98346.66;8293795;28;20049;-61
2022/01/09 04:16:04;;;;;;;31.65;4.43;;;;;;;7.15;100.00;98367.78;8292802;28;20050;-61
2022/01/09 04:20:07;;;;;;;34.03;4.63;;;;;;;7.16;100.00;98366.78;8293641;28;20029;-61
2022/01/09 04:24:07;;;;;;;29.00;4.68;;;;;;;7.20;100.00;98381.53;8292779;28;20034;-61
2022/01/09 04:28:10;;;;;;;23.17;4.38;;;;;;;7.21;100.00;98399.34;8292887;28;20072;-61
2022/01/09 04:32:10;;;;;;;32.25;4.60;;;;;;;7.24;100.00;98415.13;8291541;28;20491;-62
2022/01/09 04:36:11;;;;;;;28.45;4.47;;;;;;;7.28;100.00;98418.28;8292007;28;20148;-62
2022/01/09 04:40:13;;;;;;;31.75;3.83;;;;;;;7.25;100.00;98432.91;8292511;28;20034;-62
2022/01/09 04:44:14;;;;;;;18.27;3.78;;;;;;;7.27;100.00;98444.34;8292774;28;20121;-62
2022/01/09 04:48:15;;;;;;;27.60;3.95;;;;;;;7.33;100.00;98464.31;8292402;28;20401;-62
2022/01/09 04:52:20;;;;;;;21.70;3.28;;;;;;;7.35;98.88;98473.88;8262425;28;20042;-62
2022/01/09 04:56:20;;;;;;;15.80;3.08;;;;;;;7.39;98.87;98483.28;8259337;28;20352;-61
2022/01/09 05:00:21;;;;;;;29.20;3.55;;;;;;;7.39;98.03;98480.63;8260529;28;20046;-61
2022/01/09 05:04:21;;;;;;;17.08;3.15;;;;;;;7.32;97.65;98516.41;8260027;28;20034;-62
2022/01/09 05:08:22;;;;;;;22.55;3.20;;;;;;;7.35;96.76;98519.56;8260209;28;20053;-62
2022/01/09 05:12:22;;;;;;;19.48;3.08;;;;;;;7.30;96.26;98538.06;8254224;28;20053;-62
2022/01/09 05:16:22;;;;;;;20.15;3.25;;;;;;;7.28;96.97;98540.06;8248583;28;20156;-62
2022/01/09 05:20:23;;;;;;;19.33;3.45;;;;;;;7.29;95.39;98560.56;8259631;28;20562;-62
2022/01/09 05:24:24;;;;;;;17.80;3.75;;;;;;;7.39;95.18;98572.00;8259861;28;20113;-62
2022/01/09 05:28:24;;;;;;;18.45;3.30;;;;;;;7.32;95.87;98587.09;8260245;28;20034;-62
2022/01/09 05:32:25;;;;;;;21.98;3.92;;;;;;;7.32;95.67;98592.47;8258354;28;20743;-62
2022/01/09 05:36:25;;;;;;;18.83;2.83;;;;;;;7.32;95.51;98608.59;8260427;28;20615;-62
2022/01/09 05:40:26;;;;;;;19.73;3.08;;;;;;;7.15;96.58;98614.97;8266280;28;20104;-60
2022/01/09 05:44:26;;;;;;;21.00;2.63;;;;;;;7.25;96.14;98629.09;8290115;28;20076;-62
2022/01/09 05:48:26;;;;;;;20.92;2.83;;;;;;;7.20;96.56;98642.16;8291979;28;20053;-62
2022/01/09 05:52:27;;;;;;;18.83;3.65;;;;;;;7.15;96.09;98638.28;8288100;28;20068;-62
2022/01/09 05:56:27;;;;;;;18.65;3.70;;;;;;;7.12;96.02;98654.75;8292016;28;20045;-60
2022/01/09 06:00:28;;;;;;;15.20;2.83;;;;;;;7.14;95.10;98664.31;8297366;28;20041;-62
2022/01/09 06:04:28;;;;;;;22.48;3.13;;;;;;;7.11;95.56;98664.66;8298257;28;20033;-61
2022/01/09 06:08:28;;;;;;;20.00;3.22;;;;;;;7.17;94.44;98677.41;8297884;28;20405;-61
2022/01/09 06:12:29;;;;;;;12.07;2.85;;;;;;;7.19;94.38;98682.63;8297232;28;20117;-62
2022/01/09 06:16:29;;;;;;;15.93;3.20;;;;;;;7.17;94.44;98696.22;8297449;28;20042;-61
2022/01/09 06:20:30;;;;;;;21.95;2.75;;;;;;;7.18;93.57;98703.31;8297551;28;20036;-62
2022/01/09 06:24:30;;;;;;;26.63;3.35;;;;;;;7.16;93.92;98699.94;8297386;28;20033;-60
2022/01/09 06:28:31;;;;;;;25.42;4.13;;;;;;;7.15;93.72;98719.75;8285786;28;20142;-62
2022/01/09 06:32:31;;;;;;;15.25;3.33;;;;;;;7.14;93.79;98727.97;8264315;28;20039;-61
2022/01/09 06:36:32;;;;;;;17.85;4.35;;;;;;;7.12;93.28;98730.81;8263342;28;20039;-62
2022/01/09 06:40:32;;;;;;;21.60;3.20;;;;;;;7.10;93.34;98737.34;8264093;28;20030;-62
2022/01/09 06:44:33;;;;;;;21.45;3.17;;;;;;;7.07;93.16;98754.63;8264708;28;20096;-61
2022/01/09 06:48:33;;;;;;;21.55;2.92;;;;;;;7.11;92.99;98756.00;8296868;28;20038;-61
2022/01/09 06:52:33;;;;;;;15.70;3.25;;;;;;;7.08;92.80;98750.94;8296251;28;20072;-60
2022/01/09 06:56:34;;;;;;;17.80;3.97;;;;;;;7.07;92.78;98767.22;8295933;28;20045;-61
2022/01/09 07:00:34;;;;;;;11.88;2.28;;;;;;;6.99;92.91;98778.81;8295807;28;20108;-61
2022/01/09 07:04:35;;;;;;;11.15;3.05;;;;;;;6.95;93.24;98782.78;8295968;28;20109;-61
2022/01/09 07:08:35;;;;;;;21.45;3.17;;;;;;;6.88;93.73;98787.13;8295667;28;20447;-62
2022/01/09 07:12:36;;;;;;;14.80;2.63;;;;;;;6.86;93.88;98805.22;8295618;28;20034;-62
2022/01/09 07:16:37;;;;;;;15.93;2.92;;;;;;;6.87;94.69;98815.00;8301083;28;20096;-62
2022/01/09 07:20:37;;;;;;;19.08;3.85;;;;;;;6.78;94.82;98824.00;8295263;28;20397;-61
2022/01/09 07:24:38;;;;;;;15.38;3.08;;;;;;;6.77;95.29;98833.03;8293220;28;20393;-61
2022/01/09 07:28:38;;;;;;;16.88;3.30;;;;;;;6.77;95.69;98843.78;8292539;28;20456;-62
2022/01/09 07:32:40;;;;;;;16.58;3.45;;;;;;;6.74;95.63;98854.00;8294042;28;20069;-62
2022/01/09 07:36:40;;;;;;;13.13;2.70;;;;;;;6.63;95.88;98841.69;8295198;28;20044;-62
2022/01/09 07:40:41;;;;;;;14.98;2.70;;;;;;;6.54;95.88;98855.19;8293985;28;20041;-62
2022/01/09 07:44:41;;;;;;;19.67;2.75;;;;;;;6.49;96.47;98866.38;8290460;28;20073;-62
2022/01/09 07:48:41;;;;;;;16.00;2.97;;;;;;;6.49;97.16;98879.81;8294936;28;20030;-62
2022/01/09 07:52:42;;;;;;;14.52;2.97;;;;;;;6.55;96.60;98875.66;8294034;28;20030;-62
2022/01/09 07:56:43;;;;;;;15.90;3.70;;;;;;;6.56;96.42;98888.91;8294592;28;20041;-62
2022/01/09 08:00:43;;;;;;;16.83;3.63;;;;;;;6.59;96.05;98914.63;8293626;28;20080;-62
2022/01/09 08:04:44;;;;;;;10.85;3.40;;;;;;;6.65;95.82;98914.84;8292444;28;20034;-62
2022/01/09 08:08:44;;;;;;;17.35;3.47;;;;;;;6.63;95.91;98916.84;8261344;28;20034;-62
2022/01/09 08:12:44;;;;;;;13.63;3.17;;;;;;;6.62;95.91;98925.88;8251313;28;20039;-62
2022/01/09 08:16:45;;;;;;;14.45;2.63;;;;;;;6.50;96.17;98927.16;8252436;28;20046;-62
2022/01/09 08:20:45;;;;;;;14.27;3.22;;;;;;;6.57;95.88;98938.94;8258621;28;20038;-62
2022/01/09 08:24:46;;;;;;;14.45;3.65;;;;;;;6.63;96.20;98943.69;8261105;28;20037;-62
2022/01/09 08:28:48;;;;;;;11.38;3.10;;;;;;;6.66;95.42;98948.75;8261333;28;20376;-62
2022/01/09 08:32:49;;;;;;;19.25;3.88;;;;;;;6.56;95.42;98958.72;8259791;28;20035;-62
2022/01/09 08:36:49;;;;;;;18.13;4.50;;;;;;;6.58;95.94;98951.34;8263170;28;20042;-62
2022/01/09 08:40:50;;;;;;;14.20;3.78;;;;;;;6.64;95.23;98961.47;8259741;28;20096;-62
2022/01/09 08:44:50;;;;;;;14.48;3.67;;;;;;;6.73;94.22;98971.31;8283844;28;20092;-62
2022/01/09 08:48:51;;;;;;;18.05;3.92;;;;;;;6.76;94.09;98971.00;8292240;28;20029;-62
2022/01/09 08:52:52;;;;;;;11.40;3.63;;;;;;;6.76;94.57;98981.72;8292735;28;20034;-62
2022/01/09 08:56:53;;;;;;;14.98;4.15;;;;;;;6.74;95.05;98972.97;8291923;28;20048;-62
2022/01/09 09:00:53;;;;;;;10.85;3.38;;;;;;;6.77;94.31;98988.78;8283560;28;20099;-62
2022/01/09 09:04:53;;;;;;;13.88;3.40;;;;;;;6.78;93.56;98982.44;8289552;28;20088;-62
2022/01/09 09:08:54;;;;;;;22.48;3.75;;;;;;;6.73;94.63;99003.53;8287772;28;20437;-62
2022/01/09 09:12:54;;;;;;;16.63;4.43;;;;;;;6.60;97.69;98995.00;8286901;28;20485;-62
2022/01/09 09:16:55;;;;;;;16.23;3.72;;;;;;;6.57;98.58;99008.75;8288710;28;20048;-62
2022/01/09 09:20:57;;;;;;;14.52;4.38;;;;;;;6.69;97.91;99002.16;8288056;28;20038;-62
2022/01/09 09:24:57;;;;;;;15.38;3.65;;;;;;;7.06;95.24;99007.34;8286518;28;20084;-62
2022/01/09 09:28:57;;;;;;;13.77;3.25;;;;;;;7.38;93.51;99021.03;8287872;28;20096;-62
2022/01/09 09:32:58;;;;;;;10.57;3.88;;;;;;;7.49;92.37;99029.69;8273460;28;20057;-62
2022/01/09 09:36:58;;;;;;;11.68;2.67;;;;;;;7.36;92.80;99029.25;8283363;28;20046;-62
2022/01/09 09:40:59;;;;;;;11.52;2.60;;;;;;;7.49;91.77;99036.91;8288324;28;20046;-62
2022/01/09 09:45:02;;;;;;;14.70;2.92;;;;;;;7.57;91.23;99043.16;8286990;28;20041;-62
2022/01/09 09:49:03;;;;;;;10.18;2.95;;;;;;;7.69;89.60;99035.69;8276885;28;20996;-62
2022/01/09 09:53:03;;;;;;;15.25;3.45;;;;;;;7.90;88.94;99055.00;8272507;28;20408;-62
2022/01/09 09:57:04;;;;;;;11.52;3.30;;;;;;;8.05;88.62;99061.44;8283941;28;20104;-62
2022/01/09 10:01:04;;;;;;;12.07;2.97;;;;;;;8.68;86.63;99064.59;8277407;28;20463;-61
2022/01/09 10:05:06;;;;;;;12.55;3.50;;;;;;;8.50;84.47;99080.03;8275226;28;20053;-62
2022/01/09 10:09:19;;;;;;;11.90;3.42;;;;;;;7.93;87.07;99082.41;8275905;28;20487;-62
2022/01/09 10:13:22;;;;;;;10.00;3.20;;;;;;;8.11;86.98;99094.97;8273384;28;20046;-62
2022/01/09 10:17:24;;;;;;;10.23;2.63;;;;;;;7.93;87.03;99097.72;8276151;28;20052;-62
2022/01/09 10:21:26;;;;;;;15.60;3.78;;;;;;;7.65;89.25;99099.72;8274972;28;20064;-62
2022/01/09 10:30:30;;;;;;;13.20;3.05;;;;;;;10.65;80.28;99108.00;8247331;28;20561;-62
2022/01/09 10:34:31;;;;;;;12.18;2.70;;;;;;;9.69;79.58;99113.59;8262515;28;20037;-62
2022/01/09 10:38:31;;;;;;;13.35;2.92;;;;;;;8.43;86.50;99124.78;8276602;28;20073;-62
2022/01/09 10:42:32;;;;;;;18.38;2.88;;;;;;;8.13;89.97;99125.25;8274753;28;20064;-62
2022/01/09 10:46:33;;;;;;;18.50;3.45;;;;;;;8.50;88.01;99125.81;8275666;28;20136;-62
2022/01/09 10:50:36;;;;;;;16.35;3.40;;;;;;;8.24;85.66;99143.84;8267583;28;20491;-62
2022/01/09 10:54:37;;;;;;;13.63;3.00;;;;;;;8.11;86.83;99140.72;8264599;28;20421;-62
2022/01/09 10:58:41;;;;;;;14.88;3.10;;;;;;;8.02;86.95;99145.19;8276408;28;20132;-62
2022/01/09 11:02:44;;;;;;;;;;;;;;;7.90;87.68;99152.69;8268072;28;20148;-62
2022/01/09 11:06:44;;;;;;;21.83;4.65;;;;;;;7.82;87.84;99149.94;8265395;28;19928;-62
2022/01/09 11:10:45;;;;;;;11.70;2.85;;;;;;;7.82;88.45;99149.94;8268541;28;20042;-62
2022/01/09 11:14:47;;;;;;;13.18;3.10;;;;;;;8.24;86.97;99160.00;8270703;28;20078;-62
2022/01/09 11:18:48;;;;;;;15.95;2.90;;;;;;;8.27;86.51;99138.16;8265641;28;20050;-62
2022/01/09 11:22:50;;;;;;;12.35;2.25;;;;;;;8.33;87.26;99159.06;8277245;28;20176;-62
2022/01/09 11:31:30;;;;;;;13.30;2.90;;;;;;;11.16;74.51;99156.06;8338090;27;20403;-62
2022/01/09 11:35:50;;;;;;;16.83;3.40;;;;;;;11.72;73.04;99163.84;8305591;28;20057;-62
2022/01/09 11:39:51;;;;;;;13.52;2.22;;;;;;;10.31;75.34;99169.56;8324902;28;20037;-62
2022/01/09 11:43:59;;;;;;;15.85;3.00;;;;;;;9.04;81.27;99179.25;8331746;28;20534;-62
2022/01/09 11:47:59;;;;;;;10.93;2.45;;;;;;;8.41;82.97;99180.63;8298177;28;20788;-62
2022/01/09 11:52:00;;;;;;;16.17;2.55;;;;;;;8.27;84.61;99178.53;8285378;28;20406;-62
2022/01/09 11:56:00;;;;;;;13.48;3.22;;;;;;;8.27;84.97;99173.16;8293633;28;20286;-62
2022/01/09 12:00:03;;;;;;;14.57;2.90;;;;;;;8.41;85.13;99177.94;8299817;28;20533;-62
2022/01/09 12:04:03;;;;;;;14.40;3.63;;;;;;;8.57;84.45;99181.56;8297516;28;20077;-62
2022/01/09 12:08:06;;;;;;;17.35;3.75;;;;;;;9.93;79.73;99175.66;8298008;28;20480;-62
2022/01/09 12:12:09;;;;;;;18.00;2.75;;;;;;;10.24;77.42;99195.56;8289947;28;20038;-62
2022/01/09 12:16:47;;;;;;;13.45;2.45;;;;;;;11.06;74.74;99192.47;8294024;28;20042;-62
2022/01/09 12:20:48;;;;;;;14.93;2.88;;;;;;;10.08;76.42;99190.19;8286954;28;20050;-62
2022/01/09 12:24:48;;;;;;;19.00;4.10;;;;;;;9.07;80.55;99198.63;8303239;28;20117;-62
2022/01/09 12:28:51;;;;;;;18.98;3.22;;;;;;;8.60;81.66;99193.88;8310347;28;20037;-63
2022/01/09 12:32:52;;;;;;;19.88;3.20;;;;;;;8.45;82.78;99196.31;8298345;28;20061;-63
2022/01/09 12:36:54;;;;;;;16.15;3.20;;;;;;;8.35;83.37;99200.97;8306728;28;20037;-63
2022/01/09 12:40:59;;;;;;;19.13;3.05;;;;;;;8.41;83.72;99199.47;8290324;28;20038;-63
2022/01/09 12:45:01;;;;;;;12.77;2.85;;;;;;;8.31;83.81;99212.19;8287979;28;20128;-63
2022/01/09 12:49:06;;;;;;;12.13;2.63;;;;;;;8.36;83.30;99215.28;8284806;28;20321;-63
2022/01/09 12:53:27;;;;;;;15.27;2.58;;;;;;;8.43;82.61;99222.56;8275648;28;20050;-61
2022/01/09 12:57:28;;;;;;;20.02;3.30;;;;;;;8.46;83.03;99213.31;8260620;28;20042;-61
2022/01/09 13:01:32;;;;;;;15.90;3.10;;;;;;;8.38;81.75;99226.75;8272225;28;20528;-62
2022/01/09 13:05:33;;;;;;;13.35;2.47;;;;;;;8.40;82.15;99214.81;8272587;28;20258;-62
2022/01/09 13:09:33;;;;;;;22.70;2.85;;;;;;;8.48;81.26;99216.69;8269946;28;20178;-61
2022/01/09 13:13:35;;;;;;;16.27;3.30;;;;;;;8.72;82.08;99220.34;8291453;28;20083;-61
2022/01/09 13:17:51;;;;;;;14.95;3.42;;;;;;;8.76;80.66;99231.66;8272560;28;20053;-62
2022/01/09 13:21:52;;;;;;;11.93;3.97;;;;;;;8.74;81.02;99230.97;8265250;28;20569;-63
2022/01/09 13:25:54;;;;;;;14.38;3.50;;;;;;;8.61;81.67;99239.50;8273319;28;20417;-63
2022/01/09 13:29:56;;;;;;;15.20;3.05;;;;;;;8.54;81.70;99248.38;8276588;28;20116;-63
2022/01/09 13:34:04;;;;;;;13.23;2.95;;;;;;;8.58;80.49;99244.38;8257882;28;20088;-63
2022/01/09 13:38:04;;;;;;;15.65;4.47;;;;;;;8.73;80.85;99253.53;8274362;28;20042;-62
2022/01/09 13:42:09;;;;;;;12.02;2.90;;;;;;;8.71;80.92;99260.94;8273623;28;20084;-63
2022/01/09 13:46:11;;;;;;;;;;;;;;;8.65;81.83;99256.19;8264785;28;20305;-63
2022/01/09 13:50:14;;;;;;;17.50;2.92;;;;;;;8.44;83.00;99261.09;8260809;28;19933;-63
2022/01/09 13:54:18;;;;;;;12.57;2.92;;;;;;;8.22;83.34;99269.66;8263370;28;20121;-63
2022/01/09 13:58:19;;;;;;;21.92;3.63;;;;;;;8.18;84.71;99262.88;8274769;28;20216;-63
2022/01/09 14:02:22;;;;;;;15.88;3.25;;;;;;;8.16;83.18;99275.66;8275382;28;20122;-63
2022/01/09 14:06:22;;;;;;;13.32;2.80;;;;;;;8.22;82.79;99275.03;8266974;28;20533;-63
2022/01/09 14:10:45;;;;;;;10.40;2.58;;;;;;;8.25;82.56;99278.31;8273241;28;20501;-63
2022/01/09 14:14:47;;;;;;;14.77;2.97;;;;;;;8.23;81.60;99276.78;8265243;28;20432;-63
2022/01/09 14:18:55;;;;;;;14.60;3.42;;;;;;;8.23;81.68;99288.38;8262163;28;20541;-63
2022/01/09 14:23:06;;;;;;;6.28;2.10;;;;;;;8.15;82.26;99288.28;8259539;28;20037;-63
2022/01/09 14:27:06;;;;;;;17.40;3.42;;;;;;;8.15;82.56;99293.66;8270467;28;20049;-62
2022/01/09 14:31:11;;;;;;;16.42;4.88;;;;;;;8.21;82.07;99289.50;8276146;28;20050;-63
2022/01/09 14:35:35;;;;;;;13.65;2.88;;;;;;;8.26;81.68;99300.69;8276232;28;20099;-63
2022/01/09 14:39:35;;;;;;;18.15;3.08;;;;;;;8.21;81.53;99295.75;8276648;28;20033;-63
2022/01/09 14:43:38;;;;;;;13.23;2.40;;;;;;;8.21;81.78;99295.75;8275419;28;20061;-63
2022/01/09 14:47:39;;;;;;;12.93;2.53;;;;;;;8.18;81.44;99304.13;8288145;28;20042;-63
2022/01/09 14:51:39;;;;;;;16.30;2.75;;;;;;;8.07;83.61;99310.59;8274427;28;20033;-63
2022/01/09 14:55:41;;;;;;;17.38;3.00;;;;;;;7.89;84.24;99317.81;8275808;28;20133;-63
2022/01/09 14:59:41;;;;;;;16.60;3.47;;;;;;;7.75;83.90;99321.00;8275559;28;20038;-63
2022/01/09 15:03:41;;;;;;;19.95;3.28;;;;;;;7.67;84.47;99331.72;8275866;28;20112;-62
2022/01/09 15:07:42;;;;;;;10.40;2.90;;;;;;;7.58;84.84;99332.59;8289480;28;20730;-62
2022/01/09 15:11:42;;;;;;;17.35;3.83;;;;;;;7.47;85.43;99330.13;8264603;28;20490;-62
2022/01/09 15:15:44;;;;;;;17.00;3.05;;;;;;;7.42;84.91;99340.50;8281688;28;20121;-63
2022/01/09 15:19:45;;;;;;;15.48;3.03;;;;;;;7.30;85.22;99340.81;8269029;28;20048;-62
2022/01/09 15:23:45;;;;;;;18.35;4.28;;;;;;;7.19;85.96;99360.69;8276054;28;20034;-62
2022/01/09 15:27:46;;;;;;;19.50;4.25;;;;;;;7.16;85.86;99360.97;8273225;28;20413;-62
2022/01/09 15:31:46;;;;;;;16.17;3.30;;;;;;;7.21;85.88;99364.06;8275295;28;20120;-62
2022/01/09 15:35:47;;;;;;;13.30;2.75;;;;;;;7.23;85.61;99367.44;8273835;28;20040;-62
2022/01/09 15:39:48;;;;;;;18.40;3.85;;;;;;;7.21;85.86;99369.44;8277085;28;20038;-63
2022/01/09 15:43:48;;;;;;;20.77;3.67;;;;;;;7.28;85.93;99381.28;8268278;28;20340;-62
2022/01/09 15:47:49;;;;;;;13.50;3.33;;;;;;;7.20;86.67;99389.22;8274685;28;20045;-62
2022/01/09 15:51:50;;;;;;;16.55;3.80;;;;;;;7.16;87.15;99393.22;8271292;28;20046;-62
2022/01/09 15:55:50;;;;;;;14.68;3.28;;;;;;;7.12;87.95;99394.50;8279726;28;20080;-62
2022/01/09 15:59:52;;;;;;;16.80;4.03;;;;;;;7.05;87.76;99406.81;8279617;28;20057;-62
2022/01/09 16:03:55;;;;;;;18.98;3.67;;;;;;;7.08;87.86;99406.53;8271348;28;20038;-62
2022/01/09 16:07:55;;;;;;;15.85;3.88;;;;;;;7.09;88.05;99410.94;8274782;28;20053;-62
2022/01/09 16:11:58;;;;;;;19.20;4.10;;;;;;;7.12;87.71;99418.69;8266538;28;20042;-62
2022/01/09 16:15:59;;;;;;;16.60;4.50;;;;;;;7.17;87.90;99416.41;8279864;28;20052;-62
2022/01/09 16:20:00;;;;;;;17.98;4.03;;;;;;;7.18;88.01;99428.88;8279858;28;20077;-62
2022/01/09 16:24:00;;;;;;;17.98;4.25;;;;;;;7.12;89.04;99434.81;8278668;28;20061;-62
2022/01/09 16:28:00;;;;;;;21.98;3.65;;;;;;;6.97;90.45;99428.22;8270204;28;20473;-62
2022/01/09 16:32:01;;;;;;;25.23;6.50;;;;;;;6.82;91.68;99431.47;8277720;28;20045;-62
2022/01/09 16:36:12;;;;;;;22.58;6.00;;;;;;;6.76;92.95;99450.84;8266331;28;20048;-62
2022/01/09 16:40:13;;;;;;;24.92;9.20;;;;;;;6.70;93.98;99444.22;8273069;28;20137;-62
2022/01/09 16:44:14;;;;;;;22.73;6.97;;;;;;;6.56;93.41;99452.69;8275561;28;20382;-62
2022/01/09 16:48:14;;;;;;;25.48;5.55;;;;;;;6.46;93.19;99446.47;8265671;28;20794;-62
2022/01/09 16:52:15;;;;;;;15.65;5.10;;;;;;;6.37;92.43;99458.06;8259164;28;20124;-62
2022/01/09 16:56:15;;;;;;;22.50;5.28;;;;;;;6.31;92.94;99463.97;8268826;28;20060;-62
2022/01/09 17:00:18;;;;;;;14.60;5.78;;;;;;;6.19;93.43;99475.81;8280148;28;20041;-62
2022/01/09 17:04:18;;;;;;;18.88;6.57;;;;;;;6.06;94.42;99485.97;8280199;28;20053;-62
2022/01/09 17:08:18;;;;;;;28.02;10.20;;;;;;;5.78;94.36;99495.59;8278820;28;20045;-62
2022/01/09 17:12:19;;;;;;;22.75;7.60;;;;;;;5.52;96.19;99506.94;8274731;28;20125;-62
2022/01/09 17:16:20;;;;;;;21.00;6.75;;;;;;;5.52;96.60;99507.75;8265955;28;20558;-62
2022/01/09 17:20:21;;;;;;;19.27;4.90;;;;;;;5.34;96.96;99509.34;8283201;28;20044;-62
2022/01/09 17:24:21;;;;;;;19.63;5.45;;;;;;;5.17;97.84;99527.84;8274461;28;20038;-62
2022/01/09 17:28:24;;;;;;;26.60;7.47;;;;;;;4.93;98.80;99514.72;8271940;28;20072;-62
2022/01/09 17:32:24;;;;;;;19.83;7.00;;;;;;;4.90;98.69;99530.19;8267832;28;20522;-62
2022/01/09 17:36:25;;;;;;;21.10;6.30;;;;;;;4.90;99.06;99535.53;8274803;28;20457;-62
2022/01/09 17:40:25;;;;;;;20.50;5.05;;;;;;;5.05;98.91;99542.28;8272945;28;20093;-62
2022/01/09 17:44:26;;;;;;;49.60;18.13;;;;;;;5.27;96.88;99552.88;8282561;28;20058;-62
2022/01/09 17:48:26;;;;;;;21.70;6.47;;;;;;;5.29;96.24;99564.31;8268555;28;20181;-62
2022/01/09 17:52:27;;;;;;;25.13;11.43;;;;;;;5.13;96.43;99564.78;8268908;28;20507;-62
2022/01/09 17:56:28;;;;;;;24.25;8.02;;;;;;;5.10;98.02;99564.19;8270570;28;20038;-62
2022/01/09 18:00:28;;;;;;;35.25;8.63;;;;;;;4.95;98.55;99560.97;8271004;28;20042;-62
2022/01/09 18:04:29;;;;;;;30.55;9.55;;;;;;;4.88;99.68;99575.00;8275784;28;20555;-62
2022/01/09 18:08:29;;;;;;;32.83;8.48;;;;;;;4.85;100.00;99577.94;8275261;28;20041;-62
2022/01/09 18:12:30;;;;;;;22.95;9.05;;;;;;;4.88;99.99;99585.72;8273799;28;20038;-62
2022/01/09 18:16:30;;;;;;;23.25;9.63;;;;;;;4.94;98.90;99596.75;8268831;28;20120;-62
2022/01/09 18:20:31;;;;;;;20.10;8.32;;;;;;;4.67;98.17;99601.69;8278699;28;20461;-62
2022/01/09 18:24:32;;;;;;;27.77;9.43;;;;;;;4.37;99.58;99600.69;8267014;28;20054;-62
2022/01/09 18:28:33;;;;;;;30.98;10.02;;;;;;;4.70;100.00;99608.66;8256830;28;20046;-62
2022/01/09 18:32:34;;;;;;;20.45;8.13;;;;;;;4.70;99.21;99614.00;8272998;28;20056;-62
2022/01/09 18:36:34;;;;;;;25.77;10.25;;;;;;;4.51;100.00;99621.84;8265700;28;20879;-62
2022/01/09 18:40:36;;;;;;;20.88;9.48;;;;;;;3.95;100.00;99640.59;8275071;28;20477;-62
2022/01/09 18:44:38;;;;;;;24.00;9.15;;;;;;;3.93;100.00;99639.84;8247811;28;20062;-62
2022/01/09 18:48:39;;;;;;;26.30;10.07;;;;;;;3.81;100.00;99645.28;8275634;28;20153;-62
2022/01/09 18:52:40;;;;;;;27.55;9.25;;;;;;;3.90;100.00;99650.78;8276741;28;20042;-62
2022/01/09 18:56:40;;;;;;;32.10;11.35;;;;;;;4.06;100.00;99651.28;8259308;28;20575;-62
2022/01/09 19:00:43;;;;;;;24.95;8.77;;;;;;;4.15;100.00;99662.22;8277964;28;20045;-62
2022/01/09 19:04:43;;;;;;;31.17;9.55;;;;;;;4.29;100.00;99659.28;8280827;28;20046;-61
2022/01/09 19:08:44;;;;;;;24.13;9.93;;;;;;;4.29;100.00;99670.84;8275666;28;20117;-62